Tiempo atmosférico en la estación meteorológica de Amurrio, Araba/Álava (240 m.)



Fecha
DESCASC
Temp. máxima en grados centígrados (hora)
DESCASC
Temp. mínima en grados centígrados (hora)
DESCASC
Temp. media en grados centígrados
DESCASC
Racha de viento máxima en m/sg (hora)
DESCASC
Velocidad máxima media en intervalos de 10 minutos(hora)
DESCASC
Precipitaciones diarias en mm
DESCASC
Precipitaciones de 00:00 a 06:00 en mm
DESCASC
Precipitaciones de 06:00 a 12:00 en mm
DESCASC
Precipitaciones de 12:00 a 18:00 en mm
DESCASC
Precipitaciones de 18:00 a 24:00 en mm
DESCASC
21-02-2019 18.8 (16:10) 7.3 (23:59) 13 8.33 (07:30) 5 (07:30) 0 0 0 0 0
20-02-2019 16.5 (16:10) 3 (04:30) 9.8 6.94 (15:20) 3.89 (13:40) 0 0 0 0 0
19-02-2019 12.7 (16:50) 4.3 (23:50) 8.5 5.83 (05:50) 2.22 (02:30) 0 0 0 0 0
18-02-2019 15.5 (15:10) 5.4 (08:20) 10.5 6.39 (18:50) 3.61 (11:20) 0 0 0 0 0
17-02-2019 16.9 (13:30) 6.8 (00:00) 11.8 8.33 (14:00) 5.28 (14:00) 0 0 0 0 0
16-02-2019 16.8 (16:10) 2 (00:00) 9.4 9.17 (17:40) 5.56 (16:10) 0 0 0 0 0
15-02-2019 17.1 (16:10) 4.9 (00:00) 11 9.44 (13:30) 5.83 (13:30) 0 0 0 0 0
14-02-2019 14.3 (16:10) 6.7 (00:00) 10.5 10.28 (15:20) 6.11 (15:10) 0 0 0 0 0
13-02-2019 16.7 (13:30) -1.2 (-00:0) 7.8 5.56 (16:10) 3.61 (15:30) 0 0 0 0 0
12-02-2019 12.1 (17:10) 1.9 (00:00) 7 4.17 (06:40) 1.94 (06:50) 0 0 0 0 0
11-02-2019 10.3 (15:10) 3.7 (00:00) 7 5.83 (16:00) 2.78 (15:30) 2.2 0 1.4 0.4 0.4
10-02-2019 13.4 (09:30) 7.5 (00:00) 10.4 13.06 (09:00) 6.67 (07:30) 2.6 0 0.8 1.8 0
09-02-2019 14.8 (13:20) 4.2 (00:00) 9.5 11.11 (21:10) 6.11 (13:50) 0 0 0 0 0
08-02-2019 15.7 (13:00) 2.8 (00:00) 9.2 10.83 (14:10) 5.83 (14:10) 0 0 0 0 0
07-02-2019 10.9 (13:10) 4.6 (00:00) 7.7 5 (13:30) 2.5 (13:30) 0 0 0 0 0
06-02-2019 16.9 (14:10) 0.9 (00:00) 8.9 7.5 (14:40) 3.89 (17:10) 0 0 0 0 0
05-02-2019 15 (15:20) 3.4 (00:00) 9.2 3.33 (14:20) 2.22 (20:20) 0.2 0.2 0 0 0
04-02-2019 11.2 (14:40) -1.6 (-00:0) 4.8 3.89 (14:20) 2.22 (14:20) 0.2 0.2 0 0 0
03-02-2019 7.3 (12:20) 1.9 (00:00) 4.6 9.72 (12:50) 5 (12:50) 5.2 3.4 0.6 0.8 0.4
02-02-2019 7.7 (13:10) 1.6 (00:00) 4.6 16.11 (10:30) 6.67 (08:00) 35 19.8 5.4 4.4 5.4
01-02-2019 11.5 (12:40) 3.4 (00:00) 7.5 18.06 (13:00) 6.39 (11:40) 6.6 0 0.2 1.6 4.8
31-01-2019 16.9 (15:10) 6.9 (00:00) 11.9 11.39 (17:50) 4.17 (18:00) 32.4 5.4 1.2 0.4 25.4
30-01-2019 10.9 (15:10) 4.2 (00:00) 7.5 10 (19:30) 3.33 (15:30) 5.2 3 0.4 0 1.8
29-01-2019 10.8 (14:30) 4.5 (00:00) 7.7 13.89 (21:50) 5.83 (22:00) 8.6 2.4 0.2 3.4 2.6
28-01-2019 9.8 (13:40) 5.3 (00:00) 7.6 13.61 (14:00) 6.11 (14:20) 20.8 2.6 9.2 1.4 7.6
27-01-2019 9.4 (15:00) 2.7 (00:00) 6 15 (12:40) 6.67 (12:50) 7 0.2 2.8 0.8 3.2
26-01-2019 13.6 (13:10) 3.1 (00:00) 8.4 3.89 (19:10) 2.5 (17:40) 0 0 0 0 0
25-01-2019 10.9 (14:10) 8.4 (00:00) 9.6 9.72 (04:10) 5.28 (10:30) 7.2 5.2 1.8 0.2 0
24-01-2019 8.4 (23:59) 6.5 (00:00) 7.4 7.78 (01:00) 3.61 (01:00) 48.2 20.4 16.2 5.6 6

Gráficas

Temp. máximas Temp. mínimas Temp. medias Precipitaciones Rachas de viento máximas Velocidades máximas media en intervalos de 10 minutos

Datos horarios

Fecha y hora oficial Temperatura (ºC) Velocidad del viento (km/h) Dirección del viento Racha (km/h) Dirección de racha Precipitación (mm) Presión (hPa) Tendencia (hPa) Humedad (%)
2019-02-22 23:00:00 6 0 Calma 10 Sudoeste 0 -- -- 69
2019-02-22 22:00:00 7 0 Calma 9 Sudoeste 0 -- -- 65
2019-02-22 21:00:00 9.1 3 Oeste 8 Oeste 0 -- -- 60
2019-02-22 20:00:00 10.3 2 Sudeste 8 Sudoeste 0 -- -- 58
2019-02-22 19:00:00 13.2 3 Oeste 13 Sudoeste 0 -- -- 53
2019-02-22 18:00:00 17.8 10 Sudoeste 13 Sudoeste 0 -- -- 42
2019-02-22 17:00:00 20.8 4 Sudoeste 17 Sur 0 -- -- 26
2019-02-22 16:00:00 21 8 Sur 24 Sudeste 0 -- -- 25
2019-02-22 15:00:00 20.8 11 Sudeste 21 Sudeste 0 -- -- 27
2019-02-22 14:00:00 20.4 9 Sudeste 21 Sur 0 -- -- 31
2019-02-22 13:00:00 19.9 13 Sur 24 Sur 0 -- -- 33
2019-02-22 12:00:00 18.8 6 Sudeste 14 Este 0 -- -- 39
2019-02-22 11:00:00 15.4 4 Este 9 Sudeste 0 -- -- 54
2019-02-22 10:00:00 9.9 0 Calma 4 Nordeste 0 -- -- 71
2019-02-22 09:00:00 6.7 0 Calma 9 Sudoeste 0 -- -- 83
2019-02-22 08:00:00 6.1 5 Sudoeste 11 Sudoeste 0 -- -- 81
2019-02-22 07:00:00 7 2 Sur 12 Este 0 -- -- 81
2019-02-22 06:00:00 7.5 3 Sudeste 8 Sudoeste 0 -- -- 79
2019-02-22 05:00:00 7.8 2 Noroeste 9 Norte 0 -- -- 79
2019-02-22 04:00:00 7.5 3 Oeste 12 Sudoeste 0 -- -- 84
2019-02-22 03:00:00 6.9 4 Nordeste 7 Norte 0 -- -- 86
2019-02-22 02:00:00 6 0 Calma 9 Sudoeste 0 -- -- 88
2019-02-22 01:00:00 6.5 5 Sudoeste 9 Sudoeste 0 -- -- 86
2019-02-22 00:00:00 7.3 2 Sur 9 Sudoeste 0 -- -- 84
2019-02-21 23:00:00 8.2 5 Oeste 9 Sudoeste 0 -- -- 80
2019-02-21 22:00:00 9.9 3 Oeste 7 Sudoeste 0 -- -- 73
2019-02-21 21:00:00 13 2 Sudeste 15 Este 0 -- -- 62
2019-02-21 20:00:00 14 2 Sur 16 Sur 0 -- -- 58
2019-02-21 19:00:00 15.6 9 Sur 17 Sur 0 -- -- 53
2019-02-21 18:00:00 17.6 5 Sur 13 Sur 0 -- -- 46
2019-02-21 17:00:00 18.5 6 Sur 20 Sudeste 0 -- -- 41
2019-02-21 16:00:00 18.5 11 Sudeste 22 Sur 0 -- -- 40
2019-02-21 15:00:00 18.1 10 Sur 29 Sur 0 -- -- 42
2019-02-21 14:00:00 18 14 Sudeste 28 Sur 0 -- -- 44
2019-02-21 13:00:00 17.2 12 Sudeste 28 Sur 0 -- -- 47
2019-02-21 12:00:00 16.3 15 Sur 26 Sudeste 0 -- -- 51
2019-02-21 11:00:00 14.3 13 Sudeste 27 Sudeste 0 -- -- 56
2019-02-21 10:00:00 11.9 14 Este 28 Sudeste 0 -- -- 64
2019-02-21 09:00:00 9.9 13 Este 25 Sudeste 0 -- -- 70
2019-02-21 08:00:00 9.7 13 Sudeste 30 Sudeste 0 -- -- 70
2019-02-21 07:00:00 9.5 12 Sudeste 28 Este 0 -- -- 70
2019-02-21 06:00:00 9.7 14 Sudeste 26 Sudeste 0 -- -- 69
2019-02-21 05:00:00 9.2 11 Sudeste 19 Sudeste 0 -- -- 72
2019-02-21 04:00:00 9 9 Sudeste 20 Sudeste 0 -- -- 74
2019-02-21 03:00:00 8.9 7 Sudeste 20 Sudeste 0 -- -- 75
2019-02-21 02:00:00 8.7 8 Sur 19 Sudeste 0 -- -- 76
2019-02-21 01:00:00 8 5 Sudeste 13 Sur 0 -- -- 79
2019-02-21 00:00:00 8 3 Sur 12 Sudeste 0 -- -- 77
2019-02-20 23:00:00 7.9 6 Sudeste 10 Sudeste 0 -- -- 81
2019-02-20 22:00:00 7.9 0 Calma 6 Sur 0 -- -- 78
2019-02-20 21:00:00 9.7 4 Sur 7 Sur 0 -- -- 74
2019-02-20 20:00:00 12 5 Sur 14 Sudoeste 0 -- -- 67
2019-02-20 19:00:00 13.6 5 Sur 12 Sudoeste 0 -- -- 61
2019-02-20 18:00:00 15.6 5 Sur 15 Sudeste 0 -- -- 51
2019-02-20 17:00:00 16.3 9 Sur 21 Sur 0 -- -- 49
2019-02-20 16:00:00 16.4 10 Sur 25 Sudeste 0 -- -- 49
2019-02-20 15:00:00 16.2 11 Sudeste 24 Sudeste 0 -- -- 52
2019-02-20 14:00:00 15.8 12 Sur 23 Sur 0 -- -- 55
2019-02-20 13:00:00 15.6 13 Sur 22 Sur 0 -- -- 56
2019-02-20 12:00:00 14.4 7 Sudeste 22 Este 0 -- -- 59
2019-02-20 11:00:00 13.1 10 Sudeste 21 Sudeste 0 -- -- 62
2019-02-20 10:00:00 10.4 14 Sudeste 23 Sudeste 0 -- -- 71
2019-02-20 09:00:00 6.6 3 Sur 7 Sudeste 0 -- -- 87
2019-02-20 08:00:00 5 3 Sudeste 10 Sur 0 -- -- 92
2019-02-20 07:00:00 5.5 5 Sudeste 10 Este 0 -- -- 91
2019-02-20 06:00:00 4.7 4 Sur 11 Sudoeste 0 -- -- 94
2019-02-20 05:00:00 3.5 2 Sur 6 Sur 0 -- -- 98
2019-02-20 04:00:00 3.1 2 Sudoeste 5 Sudoeste 0 -- -- 97
2019-02-20 03:00:00 3.6 0 Calma 5 Sudoeste 0 -- -- 97
2019-02-20 02:00:00 3.4 0 Calma 4 Sudoeste 0 -- -- 97
2019-02-20 01:00:00 3.7 0 Calma 5 Sudoeste 0 -- -- 96
2019-02-20 00:00:00 4.3 5 Sudoeste 6 Sudoeste 0 -- -- 95
2019-02-19 23:00:00 4.9 2 Sudoeste 5 Sudoeste 0 -- -- 94
2019-02-19 22:00:00 5.5 3 Sudoeste 6 Sudoeste 0 -- -- 92
2019-02-19 21:00:00 6.4 3 Sudoeste 7 Sudoeste 0 -- -- 89
2019-02-19 20:00:00 8 3 Sudoeste 7 Sudoeste 0 -- -- 84
2019-02-19 19:00:00 10 4 Sudoeste 10 Sudoeste 0 -- -- 79
2019-02-19 18:00:00 12.3 4 Oeste 8 Oeste 0 -- -- 72
2019-02-19 17:00:00 12.6 5 Oeste 10 Sudoeste 0 -- -- 68
2019-02-19 16:00:00 12.3 5 Oeste 11 Oeste 0 -- -- 68
2019-02-19 15:00:00 11.6 3 Norte 10 Oeste 0 -- -- 69
2019-02-19 14:00:00 11 2 Norte 8 Este 0 -- -- 76
2019-02-19 13:00:00 10.2 0 Calma 5 Este 0 -- -- 82
2019-02-19 12:00:00 8.7 0 Calma 4 Norte 0 -- -- 90
2019-02-19 11:00:00 8 0 Calma 3 Nordeste 0 -- -- 94
2019-02-19 10:00:00 7.2 0 Calma 6 Norte 0 -- -- 96
2019-02-19 09:00:00 7.1 3 Nordeste 8 Oeste 0 -- -- 95
2019-02-19 08:00:00 7 3 Oeste 9 Noroeste 0 -- -- 96
2019-02-19 07:00:00 7 4 Noroeste 10 Oeste 0 -- -- 95
2019-02-19 06:00:00 7.3 6 Oeste 21 Noroeste 0 -- -- 94
2019-02-19 05:00:00 8 3 Noroeste 9 Noroeste 0 -- -- 91
2019-02-19 04:00:00 8.1 3 Noroeste 13 Noroeste 0 -- -- 91
2019-02-19 03:00:00 8.5 7 Noroeste 13 Noroeste 0 -- -- 88
2019-02-19 02:00:00 8.8 6 Noroeste 12 Noroeste 0 -- -- 87
2019-02-19 01:00:00 9.2 4 Noroeste 9 Norte 0 -- -- 90
2019-02-19 00:00:00 9.4 5 Noroeste 10 Norte 0 -- -- 90
2019-02-18 23:00:00 9.5 2 Noroeste 5 Noroeste 0 -- -- 87
2019-02-18 22:00:00 9.5 0 Calma 3 Oeste 0 -- -- 85
2019-02-18 21:00:00 9.2 0 Calma 8 Oeste 0 -- -- 83
2019-02-18 20:00:00 9.9 5 Oeste 13 Noroeste 0 -- -- 78
2019-02-18 19:00:00 11.4 10 Noroeste 23 Noroeste 0 -- -- 68
2019-02-18 18:00:00 14.2 3 Sur 12 Sur 0 -- -- 56
2019-02-18 17:00:00 15.2 4 Sur 15 Sur 0 -- -- 54
2019-02-18 16:00:00 15.3 10 Sur 17 Sur 0 -- -- 51
2019-02-18 15:00:00 15.4 5 Sur 19 Sur 0 -- -- 50
2019-02-18 14:00:00 15 10 Sur 19 Sur 0 -- -- 50
2019-02-18 13:00:00 14.1 8 Sur 19 Sudeste 0 -- -- 50
2019-02-18 12:00:00 13 13 Sur 23 Sur 0 -- -- 53
2019-02-18 11:00:00 11.9 10 Sur 21 Sur 0 -- -- 55
2019-02-18 10:00:00 10.4 11 Sudeste 20 Sudeste 0 -- -- 60
2019-02-18 09:00:00 7 5 Sudeste 9 Sur 0 -- -- 71
2019-02-18 08:00:00 5.9 4 Sur 17 Este 0 -- -- 70
2019-02-18 07:00:00 6.4 3 Sur 10 Sur 0 -- -- 66
2019-02-18 06:00:00 8.2 7 Sudeste 14 Sur 0 -- -- 58
2019-02-18 05:00:00 8 6 Sudeste 22 Sur 0 -- -- 56
2019-02-18 04:00:00 8.1 8 Sur 15 Sudeste 0 -- -- 53
2019-02-18 03:00:00 7.7 4 Sudeste 15 Sur 0 -- -- 52
2019-02-18 02:00:00 6.3 4 Sudoeste 9 Sudoeste 0 -- -- 57
2019-02-18 01:00:00 6.2 3 Sur 6 Sur 0 -- -- 57
2019-02-18 00:00:00 6.8 3 Sudoeste 11 Sudoeste 0 -- -- 56
2019-02-17 23:00:00 9.3 5 Oeste 9 Sudoeste 0 -- -- 46
2019-02-17 22:00:00 11 2 Sudoeste 14 Sudeste 0 -- -- 37
2019-02-17 21:00:00 12.3 5 Este 13 Sudeste 0 -- -- 34
2019-02-17 20:00:00 12.3 4 Este 9 Sudeste 0 -- -- 34
2019-02-17 19:00:00 13.8 5 Sur 17 Sur 0 -- -- 35
2019-02-17 18:00:00 15.2 6 Sur 20 Sudoeste 0 -- -- 34
2019-02-17 17:00:00 16.2 8 Sur 23 Sudoeste 0 -- -- 32
2019-02-17 16:00:00 16.7 8 Sur 24 Sur 0 -- -- 30
2019-02-17 15:00:00 16.7 13 Sur 28 Sur 0 -- -- 27
2019-02-17 14:00:00 16.5 19 Sur 30 Sur 0 -- -- 25
2019-02-17 13:00:00 16.2 12 Sur 23 Sur 0 -- -- 30
2019-02-17 12:00:00 15.2 10 Sudeste 26 Sudeste 0 -- -- 29
2019-02-17 11:00:00 13.3 14 Sudeste 26 Sudeste 0 -- -- 34
2019-02-17 10:00:00 11.2 15 Sudeste 27 Este 0 -- -- 37
2019-02-17 09:00:00 9.4 15 Sudeste 25 Sudeste 0 -- -- 41
2019-02-17 08:00:00 8.8 15 Este 28 Este 0 -- -- 43
2019-02-17 07:00:00 8.8 13 Sudeste 27 Sudeste 0 -- -- 45
2019-02-17 06:00:00 9.1 13 Sudeste 23 Sudeste 0 -- -- 46
2019-02-17 05:00:00 9.9 10 Sudeste 23 Sudeste 0 -- -- 45
2019-02-17 04:00:00 10.4 10 Sudeste 22 Sudeste 0 -- -- 44
2019-02-17 03:00:00 10.1 6 Sudeste 21 Sudeste 0 -- -- 48
2019-02-17 02:00:00 10 5 Sudeste 15 Sudeste 0 -- -- 49
2019-02-17 01:00:00 10 6 Sudeste 11 Este 0 -- -- 48
2019-02-17 00:00:00 9.2 2 Sudeste 7 Este 0 -- -- 50
2019-02-16 23:00:00 10.9 0 Calma 14 Este 0 -- -- 45
2019-02-16 22:00:00 11.7 0 Calma 11 Sudeste 0 -- -- 44
2019-02-16 21:00:00 12.5 5 Sudeste 22 Sudeste 0 -- -- 41
2019-02-16 20:00:00 13.5 12 Sur 27 Sur 0 -- -- 38
2019-02-16 19:00:00 14.2 6 Sudeste 26 Sudeste 0 -- -- 45
2019-02-16 18:00:00 15.6 16 Sur 33 Sudeste 0 -- -- 44
2019-02-16 17:00:00 16.5 13 Sur 32 Sur 0 -- -- 48
2019-02-16 16:00:00 16.6 18 Sur 29 Sur 0 -- -- 50
2019-02-16 15:00:00 16.2 15 Sur 27 Sur 0 -- -- 51
2019-02-16 14:00:00 16 12 Sur 27 Sur 0 -- -- 51
2019-02-16 13:00:00 16 13 Sur 30 Sur 0 -- -- 51
2019-02-16 12:00:00 14.7 10 Sudeste 29 Sudeste 0 -- -- 52
2019-02-16 11:00:00 12.7 16 Sudeste 27 Sudeste 0 -- -- 55
2019-02-16 10:00:00 11.2 9 Sudeste 16 Sudeste 0 -- -- 60
2019-02-16 09:00:00 4.7 3 Sur 11 Sur 0 -- -- 84
2019-02-16 08:00:00 2.3 0 Calma 6 Sur 0 -- -- 87
2019-02-16 07:00:00 2.2 0 Calma 4 Oeste 0 -- -- 87
2019-02-16 06:00:00 2.1 0 Calma 4 Sudoeste 0 -- -- 88
2019-02-16 05:00:00 2.1 0 Calma 6 Sudoeste 0 -- -- 87
2019-02-16 04:00:00 2.5 0 Calma 5 Sudoeste 0 -- -- 85
2019-02-16 03:00:00 3.1 3 Oeste 5 Sudoeste 0 -- -- 85
2019-02-16 02:00:00 3.4 2 Sudoeste 6 Sudoeste 0 -- -- 83
2019-02-16 01:00:00 3.9 0 Calma 4 Oeste 0 -- -- 83
2019-02-16 00:00:00 4.9 0 Calma 5 Oeste 0 -- -- 80
2019-02-15 23:00:00 6.1 0 Calma 6 Oeste 0 -- -- 79
2019-02-15 22:00:00 7.4 0 Calma 6 Sur 0 -- -- 77
2019-02-15 21:00:00 8.9 2 Sur 9 Sur 0 -- -- 74
2019-02-15 20:00:00 11.3 3 Sur 9 Sur 0 -- -- 66
2019-02-15 19:00:00 13.2 3 Sudeste 12 Sur 0 -- -- 60
2019-02-15 18:00:00 15.4 5 Sur 16 Sur 0 -- -- 49
2019-02-15 17:00:00 16.8 12 Sur 22 Sur 0 -- -- 44
2019-02-15 16:00:00 17 13 Sur 26 Sur 0 -- -- 42
2019-02-15 15:00:00 16.7 14 Sur 26 Sudeste 0 -- -- 42
2019-02-15 14:00:00 16 16 Sur 34 Sur 0 -- -- 45
2019-02-15 13:00:00 16 16 Sur 29 Sudoeste 0 -- -- 44
2019-02-15 12:00:00 14.9 15 Sudeste 32 Sudeste 0 -- -- 46
2019-02-15 11:00:00 12.6 15 Sudeste 29 Sudeste 0 -- -- 53
2019-02-15 10:00:00 11.3 12 Sudeste 26 Sudeste 0 -- -- 56
2019-02-15 09:00:00 9.5 12 Sudeste 21 Este 0 -- -- 61
2019-02-15 08:00:00 9.3 9 Sudeste 31 Sudeste 0 -- -- 60
2019-02-15 07:00:00 9.3 17 Sudeste 33 Sudeste 0 -- -- 62
2019-02-15 06:00:00 8.8 9 Sudeste 27 Sur 0 -- -- 66
2019-02-15 05:00:00 8.6 16 Sur 24 Sur 0 -- -- 68
2019-02-15 04:00:00 8.9 8 Sudeste 20 Sur 0 -- -- 68
2019-02-15 03:00:00 9.2 13 Sur 21 Sur 0 -- -- 65
2019-02-15 02:00:00 9.4 13 Sur 20 Sur 0 -- -- 62
2019-02-15 01:00:00 9.7 13 Sur 18 Sur 0 -- -- 59
2019-02-15 00:00:00 10.1 10 Sur 23 Sur 0 -- -- 57
2019-02-14 23:00:00 10.8 10 Sur 17 Sur 0 -- -- 53
2019-02-14 22:00:00 11.2 7 Sudeste 20 Sudeste 0 -- -- 53
2019-02-14 21:00:00 11.4 7 Sudeste 21 Sur 0 -- -- 54
2019-02-14 20:00:00 11.6 9 Sudeste 19 Sudeste 0 -- -- 55
2019-02-14 19:00:00 12.2 6 Sur 15 Sudeste 0 -- -- 56
2019-02-14 18:00:00 13.4 8 Sudeste 26 Sur 0 -- -- 54
2019-02-14 17:00:00 14.1 14 Sur 27 Sur 0 -- -- 54
2019-02-14 16:00:00 14.2 15 Sur 37 Sur 0 -- -- 56
2019-02-14 15:00:00 13.8 21 Sur 33 Sur 0 -- -- 58
2019-02-14 14:00:00 13.6 17 Sur 35 Sur 0 -- -- 58
2019-02-14 13:00:00 13.6 13 Sur 35 Sudeste 0 -- -- 56
2019-02-14 12:00:00 12.9 19 Sur 36 Sur 0 -- -- 56
2019-02-14 11:00:00 12.3 15 Sur 32 Sudeste 0 -- -- 59
2019-02-14 10:00:00 11.4 11 Sudeste 24 Sur 0 -- -- 61
2019-02-14 09:00:00 10 12 Sudeste 22 Sudeste 0 -- -- 63
2019-02-14 08:00:00 9.5 10 Sudeste 23 Sudeste 0 -- -- 63
2019-02-14 07:00:00 10.1 10 Sudeste 24 Sur 0 -- -- 62
2019-02-14 06:00:00 9.8 12 Sur 26 Sudeste 0 -- -- 64
2019-02-14 05:00:00 10 12 Sudeste 21 Sudeste 0 -- -- 64
2019-02-14 04:00:00 9.9 10 Sudeste 22 Sudeste 0 -- -- 63
2019-02-14 03:00:00 8.6 8 Sur 15 Sudeste 0 -- -- 70
2019-02-14 02:00:00 8.8 10 Sur 16 Sur 0 -- -- 71
2019-02-14 01:00:00 7.7 5 Sur 11 Sudoeste 0 -- -- 75
2019-02-14 00:00:00 6.7 2 Sur 9 Sudoeste 0 -- -- 80
2019-02-13 23:00:00 6.1 6 Sudoeste 10 Sudoeste 0 -- -- 83
2019-02-13 22:00:00 6.6 3 Sur 6 Sudoeste 0 -- -- 81
2019-02-13 21:00:00 7.7 3 Sudoeste 9 Sur 0 -- -- 75
2019-02-13 20:00:00 9.7 2 Sur 6 Sur 0 -- -- 67
2019-02-13 19:00:00 12.1 3 Sur 9 Sur 0 -- -- 61
2019-02-13 18:00:00 14.9 6 Sur 12 Sur 0 -- -- 52
2019-02-13 17:00:00 16.2 7 Sur 20 Sur 0 -- -- 47
2019-02-13 16:00:00 16.2 9 Sur 19 Sur 0 -- -- 45
2019-02-13 15:00:00 16.3 12 Sur 18 Sur 0 -- -- 41
2019-02-13 14:00:00 16.2 8 Sudeste 18 Sur 0 -- -- 43
2019-02-13 13:00:00 16 9 Sudeste 14 Sudeste 0 -- -- 41
2019-02-13 12:00:00 11.3 2 Nordeste 5 Este 0 -- -- 71
2019-02-13 11:00:00 5.9 0 Calma 4 Nordeste 0 -- -- 85
2019-02-13 10:00:00 2.6 0 Calma 2 Este 0 -- -- 96
2019-02-13 09:00:00 -0.2 0 Calma 4 Sudoeste 0 -- -- 100
2019-02-13 08:00:00 -1.2 0 Calma 4 Sudoeste 0 -- -- 100
2019-02-13 07:00:00 -1 2 Sudoeste 4 Sudoeste 0 -- -- 100
2019-02-13 06:00:00 -0.8 3 Sudoeste 4 Sudoeste 0 -- -- 99
2019-02-13 05:00:00 -0.6 0 Calma 3 Sudoeste 0 -- -- 99
2019-02-13 04:00:00 -0.1 0 Calma 3 Sudoeste 0 -- -- 98
2019-02-13 03:00:00 0.3 0 Calma 3 Sudoeste 0 -- -- 98
2019-02-13 02:00:00 0.8 0 Calma 6 Sudoeste 0 -- -- 97
2019-02-13 01:00:00 1.4 0 Calma 3 Sudoeste 0 -- -- 97
2019-02-13 00:00:00 1.9 0 Calma 4 Oeste 0 -- -- 96
2019-02-12 23:00:00 2.6 2 Sudoeste 5 Sudoeste 0 -- -- 95
2019-02-12 22:00:00 3.5 0 Calma 6 Sudoeste 0 -- -- 93
2019-02-12 21:00:00 4.4 0 Calma 5 Sudoeste 0 -- -- 91
2019-02-12 20:00:00 5.9 2 Sudoeste 5 Sudoeste 0 -- -- 86
2019-02-12 19:00:00 8.2 5 Sudoeste 9 Sudoeste 0 -- -- 80
2019-02-12 18:00:00 11 7 Sudoeste 9 Sudoeste 0 -- -- 70
2019-02-12 17:00:00 11.9 3 Norte 8 Este 0 -- -- 60
2019-02-12 16:00:00 12 4 Norte 8 Nordeste 0 -- -- 59
2019-02-12 15:00:00 11.4 3 Noroeste 9 Norte 0 -- -- 63
2019-02-12 14:00:00 10.9 5 Norte 12 Norte 0 -- -- 66
2019-02-12 13:00:00 10.1 2 Oeste 5 Nordeste 0 -- -- 71
2019-02-12 12:00:00 8.5 2 Este 6 Sudeste 0 -- -- 91
2019-02-12 11:00:00 4.8 2 Nordeste 6 Nordeste 0 -- -- 100
2019-02-12 10:00:00 2.5 2 Noroeste 6 Norte 0 -- -- 100
2019-02-12 09:00:00 2 0 Calma 5 Sur 0 -- -- 100
2019-02-12 08:00:00 2.6 2 Sudoeste 8 Sudeste 0 -- -- 100
2019-02-12 07:00:00 3.1 6 Sur 15 Sur 0 -- -- 100
2019-02-12 06:00:00 3.7 0 Calma 4 Este 0 -- -- 100
2019-02-12 05:00:00 3.6 0 Calma 4 Este 0 -- -- 100
2019-02-12 04:00:00 3.7 0 Calma 4 Sudoeste 0 -- -- 100
2019-02-12 03:00:00 3.3 2 Sudoeste 5 Oeste 0 -- -- 100
2019-02-12 02:00:00 3.5 2 Oeste 4 Sudoeste 0 -- -- 99
2019-02-12 01:00:00 3.5 3 Sudoeste 8 Sudoeste 0 -- -- 98
2019-02-12 00:00:00 3.7 2 Oeste 5 Sudoeste 0 -- -- 96
2019-02-11 23:00:00 5 4 Oeste 8 Sudoeste 0 -- -- 95
2019-02-11 22:00:00 6.4 3 Oeste 4 Sudoeste 0 -- -- 93
2019-02-11 21:00:00 7.3 0 Calma 6 Oeste 0 -- -- 92
2019-02-11 20:00:00 7.6 4 Oeste 11 Oeste 0.2 -- -- 93
2019-02-11 19:00:00 8.7 6 Nordeste 12 Oeste 0.2 -- -- 83
2019-02-11 18:00:00 9.3 2 Oeste 10 Sudoeste 0 -- -- 80
2019-02-11 17:00:00 9.5 6 Oeste 19 Oeste 0 -- -- 77
2019-02-11 16:00:00 9.5 10 Noroeste 21 Noroeste 0.2 -- -- 79
2019-02-11 15:00:00 10.1 7 Oeste 13 Oeste 0 -- -- 79
2019-02-11 14:00:00 8.7 3 Norte 10 Norte 0 -- -- 87
2019-02-11 13:00:00 8.3 4 Norte 8 Norte 0.2 -- -- 89
2019-02-11 12:00:00 8.1 4 Este 8 Nordeste 0.2 -- -- 89
2019-02-11 11:00:00 7.4 0 Calma 9 Sudeste 0 -- -- 92
2019-02-11 10:00:00 6.6 3 Sudoeste 8 Sur 0.6 -- -- 96
2019-02-11 09:00:00 6.2 4 Sur 11 Sur 0.2 -- -- 95
2019-02-11 08:00:00 6.1 0 Calma 4 Sudoeste 0.4 -- -- 95
2019-02-11 07:00:00 6 0 Calma 7 Oeste 0 -- -- 92
2019-02-11 06:00:00 6.6 2 Oeste 6 Sur 0 -- -- 90
2019-02-11 05:00:00 6.6 0 Calma 9 Sudoeste 0 -- -- 88
2019-02-11 04:00:00 6.7 3 Oeste 9 Oeste 0 -- -- 86
2019-02-11 03:00:00 6.9 0 Calma 5 Sudoeste 0 -- -- 84
2019-02-11 02:00:00 7.7 3 Noroeste 12 Oeste 0 -- -- 77
2019-02-11 01:00:00 6.9 3 Oeste 7 Oeste 0 -- -- 86
2019-02-11 00:00:00 7.5 2 Nordeste 9 Norte 0 -- -- 80
2019-02-10 23:00:00 8.4 5 Noroeste 16 Oeste 0 -- -- 77
2019-02-10 22:00:00 8.2 7 Norte 16 Noroeste 0 -- -- 79
2019-02-10 21:00:00 8.4 6 Noroeste 15 Noroeste 0 -- -- 79
2019-02-10 20:00:00 8.6 7 Noroeste 19 Oeste 0 -- -- 78
2019-02-10 19:00:00 8.3 4 Oeste 20 Norte 0 -- -- 88
2019-02-10 18:00:00 8.6 10 Noroeste 21 Noroeste 0 -- -- 81
2019-02-10 17:00:00 8.7 4 Norte 16 Noroeste 0.2 -- -- 87
2019-02-10 16:00:00 9.2 9 Noroeste 21 Noroeste 0.2 -- -- 90
2019-02-10 15:00:00 10.4 8 Norte 15 Norte 0.2 -- -- 88
2019-02-10 14:00:00 10.2 3 Norte 8 Nordeste 0.6 -- -- 94
2019-02-10 13:00:00 9.9 3 Este 6 Norte 0.6 -- -- 93
2019-02-10 12:00:00 9.9 3 Norte 27 Norte 0.6 -- -- 92
2019-02-10 11:00:00 12.9 12 Noroeste 33 Oeste 0 -- -- 73
2019-02-10 10:00:00 13.3 11 Sudoeste 41 Este 0 -- -- 66
2019-02-10 09:00:00 13.1 17 Sudeste 47 Sudeste 0 -- -- 64
2019-02-10 08:00:00 12.8 19 Este 42 Este 0 -- -- 64
2019-02-10 07:00:00 11.7 18 Este 37 Sudeste 0.2 -- -- 71
2019-02-10 06:00:00 12.9 16 Sudeste 40 Este 0 -- -- 63
2019-02-10 05:00:00 12.6 15 Este 33 Sudeste 0 -- -- 60
2019-02-10 04:00:00 12.6 8 Este 41 Este 0 -- -- 57
2019-02-10 03:00:00 12.5 13 Sudeste 23 Sudeste 0 -- -- 57
2019-02-10 02:00:00 12.6 7 Sur 25 Sudeste 0 -- -- 55
2019-02-10 01:00:00 13.2 15 Sudeste 37 Sudeste 0 -- -- 53
2019-02-10 00:00:00 13.1 7 Nordeste 37 Sudeste 0 -- -- 52
2019-02-09 23:00:00 13.7 5 Este 22 Sudeste 0 -- -- 51
2019-02-09 22:00:00 14 7 Sur 40 Sudoeste 0 -- -- 51
2019-02-09 21:00:00 14 8 Sudoeste 28 Sur 0 -- -- 52
2019-02-09 20:00:00 14.2 10 Sudeste 33 Sur 0 -- -- 53
2019-02-09 19:00:00 13.9 12 Sur 32 Sur 0 -- -- 52
2019-02-09 18:00:00 14.1 10 Sudeste 28 Sudeste 0 -- -- 53
2019-02-09 17:00:00 14.1 9 Sur 36 Sudeste 0 -- -- 53
2019-02-09 16:00:00 14.1 9 Sur 35 Sudeste 0 -- -- 54
2019-02-09 15:00:00 14.1 13 Sur 35 Sur 0 -- -- 55
2019-02-09 14:00:00 14.6 9 Sur 37 Sur 0 -- -- 54
2019-02-09 13:00:00 14.7 17 Sur 36 Sur 0 -- -- 54
2019-02-09 12:00:00 13.8 14 Sudoeste 33 Sudoeste 0 -- -- 59
2019-02-09 11:00:00 11.8 12 Sur 34 Sur 0 -- -- 65
2019-02-09 10:00:00 7.1 4 Sudeste 14 Norte 0 -- -- 86
2019-02-09 09:00:00 5 3 Nordeste 8 Oeste 0 -- -- 91
2019-02-09 08:00:00 4.2 4 Oeste 10 Sudoeste 0 -- -- 90
2019-02-09 07:00:00 4.7 2 Oeste 10 Sudoeste 0 -- -- 89
2019-02-09 06:00:00 5.6 7 Sudoeste 10 Sudoeste 0 -- -- 86
2019-02-09 05:00:00 6.1 4 Oeste 6 Sudoeste 0 -- -- 85
2019-02-09 04:00:00 6.4 2 Oeste 8 Noroeste 0 -- -- 85
2019-02-09 03:00:00 6.7 0 Calma 9 Oeste 0 -- -- 83
2019-02-09 02:00:00 7.6 2 Oeste 9 Noroeste 0 -- -- 78
2019-02-09 01:00:00 7.8 0 Calma 6 Oeste 0 -- -- 77
2019-02-09 00:00:00 8.4 2 Sudoeste 9 Norte 0 -- -- 72
2019-02-08 23:00:00 9.3 5 Oeste 10 Oeste 0 -- -- 66
2019-02-08 22:00:00 10.9 3 Oeste 17 Sudoeste 0 -- -- 61
2019-02-08 21:00:00 12.3 7 Sudoeste 19 Sudoeste 0 -- -- 50
2019-02-08 20:00:00 12.7 8 Sur 36 Sur 0 -- -- 52
2019-02-08 19:00:00 10.9 8 Sur 26 Sudeste 0 -- -- 59
2019-02-08 18:00:00 14 5 Sudoeste 15 Oeste 0 -- -- 49
2019-02-08 17:00:00 15.6 8 Nordeste 23 Este 0 -- -- 41
2019-02-08 16:00:00 15.1 5 Este 25 Sur 0 -- -- 43
2019-02-08 15:00:00 14.9 10 Sur 39 Sudoeste 0 -- -- 48
2019-02-08 14:00:00 15.2 14 Sudoeste 38 Sudoeste 0 -- -- 49
2019-02-08 13:00:00 15.7 11 Sudeste 33 Sur 0 -- -- 49
2019-02-08 12:00:00 14.4 14 Sudeste 27 Sur 0 -- -- 55
2019-02-08 11:00:00 13.2 15 Sudeste 27 Este 0 -- -- 58
2019-02-08 10:00:00 11.9 6 Sudeste 25 Este 0 -- -- 64
2019-02-08 09:00:00 9.4 8 Este 22 Este 0 -- -- 73
2019-02-08 08:00:00 6.8 5 Este 16 Sudeste 0 -- -- 84
2019-02-08 07:00:00 6.8 10 Sudeste 21 Este 0 -- -- 86
2019-02-08 06:00:00 3.6 5 Sur 9 Sudeste 0 -- -- 100
2019-02-08 05:00:00 3 4 Sudeste 8 Oeste 0 -- -- 98
2019-02-08 04:00:00 3.4 0 Calma 9 Sudoeste 0 -- -- 96
2019-02-08 03:00:00 4.1 4 Sudoeste 12 Sudoeste 0 -- -- 96
2019-02-08 02:00:00 4.3 2 Sudoeste 8 Sudoeste 0 -- -- 95
2019-02-08 01:00:00 4.8 0 Calma 7 Sudoeste 0 -- -- 95
2019-02-08 00:00:00 5.8 4 Oeste 9 Sudoeste 0 -- -- 93
2019-02-07 23:00:00 6.8 0 Calma 5 Sudeste 0 -- -- 93
2019-02-07 22:00:00 6.9 0 Calma 3 Sudoeste 0 -- -- 93
2019-02-07 21:00:00 7.1 0 Calma 4 Oeste 0 -- -- 92
2019-02-07 20:00:00 7.1 3 Sudoeste 5 Oeste 0 -- -- 89
2019-02-07 19:00:00 8.3 8 Sudoeste 11 Sudoeste 0 -- -- 84
2019-02-07 18:00:00 10.4 0 Calma 4 Sudeste 0 -- -- 78
2019-02-07 17:00:00 10.5 0 Calma 4 Norte 0 -- -- 76
2019-02-07 16:00:00 10.3 3 Norte 11 Norte 0 -- -- 79
2019-02-07 15:00:00 10.4 6 Norte 12 Noroeste 0 -- -- 79
2019-02-07 14:00:00 10.6 5 Norte 18 Noroeste 0 -- -- 77
2019-02-07 13:00:00 10.6 8 Noroeste 13 Norte 0 -- -- 81
2019-02-07 12:00:00 10.3 7 Noroeste 15 Noroeste 0 -- -- 84
2019-02-07 11:00:00 8.6 3 Este 7 Sudeste 0 -- -- 98
2019-02-07 10:00:00 6.2 0 Calma 3 Oeste 0 -- -- 99
2019-02-07 09:00:00 5.5 0 Calma 3 Sur 0 -- -- 99
2019-02-07 08:00:00 5.1 0 Calma 4 Noroeste 0 -- -- 99
2019-02-07 07:00:00 4.9 0 Calma 4 Sudoeste 0 -- -- 98
2019-02-07 06:00:00 4.6 0 Calma 6 Sudoeste 0 -- -- 97
2019-02-07 05:00:00 5.8 0 Calma 6 Sudoeste 0 -- -- 96
2019-02-07 04:00:00 6.5 5 Sudoeste 8 Sudoeste 0 -- -- 96
2019-02-07 03:00:00 6.7 0 Calma 4 Sudoeste 0 -- -- 95
2019-02-07 02:00:00 7.2 0 Calma 3 Noroeste 0 -- -- 94
2019-02-07 01:00:00 7.1 0 Calma 3 Sudeste 0 -- -- 93
2019-02-07 00:00:00 7.1 2 Sudeste 6 Oeste 0 -- -- 91
2019-02-06 23:00:00 7.3 3 Noroeste 9 Sudoeste 0 -- -- 89
2019-02-06 22:00:00 8 3 Oeste 8 Sudoeste 0 -- -- 86
2019-02-06 21:00:00 9.3 2 Noroeste 14 Sudoeste 0 -- -- 80
2019-02-06 20:00:00 10.9 2 Sur 7 Sudoeste 0 -- -- 75
2019-02-06 19:00:00 12 5 Sur 17 Sudoeste 0 -- -- 69
2019-02-06 18:00:00 15.1 4 Sudoeste 26 Sudoeste 0 -- -- 57
2019-02-06 17:00:00 16.3 11 Sudoeste 20 Sudoeste 0 -- -- 51
2019-02-06 16:00:00 16.7 8 Sur 26 Sur 0 -- -- 52
2019-02-06 15:00:00 16.5 10 Sudoeste 27 Sudoeste 0 -- -- 55
2019-02-06 14:00:00 16.8 7 Este 15 Este 0 -- -- 55
2019-02-06 13:00:00 14.4 5 Noroeste 9 Noroeste 0 -- -- 67
2019-02-06 12:00:00 9.9 2 Norte 5 Nordeste 0 -- -- 87
2019-02-06 11:00:00 6.4 0 Calma 4 Nordeste 0 -- -- 100
2019-02-06 10:00:00 2.5 0 Calma 2 Este 0 -- -- 100
2019-02-06 09:00:00 0.9 0 Calma 3 Sudoeste 0 -- -- 100
2019-02-06 08:00:00 1.3 0 Calma 4 Sudoeste 0 -- -- 100
2019-02-06 07:00:00 1.4 2 Oeste 4 Sudoeste 0 -- -- 100
2019-02-06 06:00:00 1.6 0 Calma 6 Sudoeste 0 -- -- 100
2019-02-06 05:00:00 2 4 Sudoeste 5 Sudoeste 0 -- -- 100
2019-02-06 04:00:00 2.2 4 Sudoeste 5 Sudoeste 0 -- -- 99
2019-02-06 03:00:00 2.8 0 Calma 4 Oeste 0 -- -- 99
2019-02-06 02:00:00 3.5 0 Calma 5 Sudoeste 0 -- -- 98
2019-02-06 01:00:00 4.2 3 Oeste 4 Sudoeste 0 -- -- 98
2019-02-06 00:00:00 4.8 0 Calma 5 Sudoeste 0 -- -- 97
2019-02-05 23:00:00 5.8 0 Calma 5 Sudoeste 0 -- -- 96
2019-02-05 22:00:00 7 3 Sur 5 Sur 0 -- -- 92
2019-02-05 21:00:00 9.2 5 Sudoeste 10 Sudoeste 0 -- -- 87
2019-02-05 20:00:00 11.5 4 Oeste 6 Oeste 0 -- -- 83
2019-02-05 19:00:00 12.2 3 Noroeste 10 Oeste 0 -- -- 80
2019-02-05 18:00:00 13.1 4 Noroeste 10 Noroeste 0 -- -- 77
2019-02-05 17:00:00 14 6 Noroeste 10 Noroeste 0 -- -- 72
2019-02-05 16:00:00 14.6 3 Noroeste 8 Norte 0 -- -- 67
2019-02-05 15:00:00 14.7 3 Sudoeste 12 Norte 0 -- -- 63
2019-02-05 14:00:00 14.2 3 Norte 9 Norte 0 -- -- 63
2019-02-05 13:00:00 13.3 2 Noroeste 5 Nordeste 0 -- -- 67
2019-02-05 12:00:00 11.2 0 Calma 5 Este 0 -- -- 76
2019-02-05 11:00:00 7.2 0 Calma 4 Nordeste 0 -- -- 98
2019-02-05 10:00:00 5.4 0 Calma 4 Oeste 0 -- -- 100
2019-02-05 09:00:00 4 0 Calma 4 Sudoeste 0 -- -- 100
2019-02-05 08:00:00 4.2 2 Oeste 5 Oeste 0 -- -- 100
2019-02-05 07:00:00 4.2 2 Este 4 Noroeste 0 -- -- 99
2019-02-05 06:00:00 3.9 0 Calma 5 Sudoeste 0 -- -- 99
2019-02-05 05:00:00 3.8 0 Calma 6 Sudoeste 0 -- -- 96
2019-02-05 04:00:00 5.1 0 Calma 5 Sudoeste 0 -- -- 96
2019-02-05 03:00:00 5.8 4 Sudoeste 6 Sudoeste 0 -- -- 96
2019-02-05 02:00:00 6.1 0 Calma 5 Sudoeste 0 -- -- 95
2019-02-05 01:00:00 6.6 0 Calma 2 Sudoeste 0.2 -- -- 94
2019-02-05 00:00:00 6.7 0 Calma 3 Oeste 0 -- -- 91
2019-02-04 23:00:00 7 0 Calma 5 Oeste 0 -- -- 86
2019-02-04 22:00:00 7.2 0 Calma 5 Sur 0 -- -- 81
2019-02-04 21:00:00 6.8 0 Calma 3 Nordeste 0 -- -- 84
2019-02-04 20:00:00 6.9 3 Oeste 9 Sudoeste 0 -- -- 82
2019-02-04 19:00:00 8.4 3 Sudoeste 5 Sudoeste 0 -- -- 78
2019-02-04 18:00:00 9.6 2 Este 8 Sur 0 -- -- 61
2019-02-04 17:00:00 10.3 4 Sur 10 Sur 0 -- -- 57
2019-02-04 16:00:00 10.8 6 Sur 12 Sur 0 -- -- 54
2019-02-04 15:00:00 11.2 6 Nordeste 14 Sur 0 -- -- 53
2019-02-04 14:00:00 10.6 6 Sudeste 12 Sudeste 0 -- -- 51
2019-02-04 13:00:00 8.1 0 Calma 8 Nordeste 0 -- -- 67
2019-02-04 12:00:00 5.5 4 Nordeste 6 Nordeste 0 -- -- 100
2019-02-04 11:00:00 1.9 0 Calma 5 Sur 0 -- -- 100
2019-02-04 10:00:00 0 0 Calma 5 Noroeste 0 -- -- 100
2019-02-04 09:00:00 -1.1 0 Calma 6 Noroeste 0 -- -- 100
2019-02-04 08:00:00 -1.4 0 Calma 5 Noroeste 0 -- -- 100
2019-02-04 07:00:00 -1.3 0 Calma 5 Noroeste 0 -- -- 100
2019-02-04 06:00:00 -0.9 5 Noroeste 8 Noroeste 0 -- -- 100
2019-02-04 05:00:00 -0.4 0 Calma 6 Sudoeste 0 -- -- 100
2019-02-04 04:00:00 0.4 0 Calma 6 Sudoeste 0 -- -- 100
2019-02-04 03:00:00 1.1 3 Sudeste 11 Sudeste 0 -- -- 100
2019-02-04 02:00:00 1.6 0 Calma 5 Sudoeste 0 -- -- 100
2019-02-04 01:00:00 3 0 Calma 4 Noroeste 0.2 -- -- 99
2019-02-04 00:00:00 3.3 2 Este 5 Sudoeste 0 -- -- 99
2019-02-03 23:00:00 3 0 Calma 8 Sudoeste 0 -- -- 99
2019-02-03 22:00:00 3.1 2 Norte 6 Nordeste 0 -- -- 98
2019-02-03 21:00:00 3.9 2 Este 13 Sudoeste 0.4 -- -- 96
2019-02-03 20:00:00 3.7 2 Sudoeste 5 Nordeste 0 -- -- 93
2019-02-03 19:00:00 4.6 5 Sudoeste 17 Oeste 0 -- -- 86
2019-02-03 18:00:00 6 5 Oeste 14 Noroeste 0 -- -- 83
2019-02-03 17:00:00 6.4 7 Oeste 15 Oeste 0 -- -- 85
2019-02-03 16:00:00 5.7 5 Sur 10 Sur 0 -- -- 89
2019-02-03 15:00:00 5.4 5 Norte 21 Nordeste 0.6 -- -- 89
2019-02-03 14:00:00 6.3 7 Norte 15 Noroeste 0 -- -- 83
2019-02-03 13:00:00 5.7 10 Norte 35 Noroeste 0.2 -- -- 86
2019-02-03 12:00:00 7.1 13 Noroeste 25 Oeste 0 -- -- 78
2019-02-03 11:00:00 4.2 7 Noroeste 31 Noroeste 0 -- -- 85
2019-02-03 10:00:00 4.1 5 Norte 12 Norte 0 -- -- 87
2019-02-03 09:00:00 3.1 6 Oeste 23 Oeste 0 -- -- 89
2019-02-03 08:00:00 2.7 2 Sudoeste 19 Norte 0 -- -- 91
2019-02-03 07:00:00 3 10 Noroeste 31 Norte 0.6 -- -- 88
2019-02-03 06:00:00 2.7 8 Noroeste 24 Norte 0.2 -- -- 89
2019-02-03 05:00:00 2.7 2 Este 13 Oeste 0 -- -- 86
2019-02-03 04:00:00 2 3 Oeste 14 Oeste 0.4 -- -- 92
2019-02-03 03:00:00 2.7 0 Calma 18 Oeste 2.6 -- -- 88
2019-02-03 02:00:00 3.6 3 Norte 17 Oeste 0.2 -- -- 83
2019-02-03 01:00:00 3.9 12 Oeste 31 Noroeste 0 -- -- 77
2019-02-03 00:00:00 3.9 9 Noroeste 33 Noroeste 1.2 -- -- 88
2019-02-02 23:00:00 4.5 8 Noroeste 21 Noroeste 0.4 -- -- 82
2019-02-02 22:00:00 3.9 9 Noroeste 28 Oeste 0.2 -- -- 85
2019-02-02 21:00:00 2.7 3 Sudoeste 21 Noroeste 0.2 -- -- 93
2019-02-02 20:00:00 3.1 10 Norte 27 Nordeste 2 -- -- 90
2019-02-02 19:00:00 4.2 13 Noroeste 26 Norte 1.4 -- -- 81
2019-02-02 18:00:00 4.5 6 Oeste 50 Noroeste 1.4 -- -- 77
2019-02-02 17:00:00 5.3 5 Oeste 30 Oeste 0.8 -- -- 86
2019-02-02 16:00:00 5.2 10 Oeste 31 Oeste 0 -- -- 81
2019-02-02 15:00:00 4.1 7 Norte 27 Noroeste 2 -- -- 88
2019-02-02 14:00:00 6.1 17 Oeste 52 Noroeste 0.2 -- -- 73
2019-02-02 13:00:00 7.5 19 Noroeste 42 Noroeste 0 -- -- 57
2019-02-02 12:00:00 6.1 18 Noroeste 39 Noroeste 0.2 -- -- 72
2019-02-02 11:00:00 5.6 14 Noroeste 58 Noroeste 0.6 -- -- 76
2019-02-02 10:00:00 5.3 18 Noroeste 48 Noroeste 1.6 -- -- 81
2019-02-02 09:00:00 4.6 14 Noroeste 45 Noroeste 1.6 -- -- 89
2019-02-02 08:00:00 4.8 24 Noroeste 42 Noroeste 0.6 -- -- 89
2019-02-02 07:00:00 5.1 14 Noroeste 26 Norte 0.8 -- -- 90
2019-02-02 06:00:00 4 11 Noroeste 52 Oeste 3.2 -- -- 95
2019-02-02 05:00:00 1.8 3 Sudeste 7 Noroeste 4.4 -- -- 99
2019-02-02 04:00:00 2 3 Sudeste 11 Sur 4.2 -- -- 97
2019-02-02 03:00:00 3.2 4 Sur 10 Sur 6.4 -- -- 98
2019-02-02 02:00:00 3.6 0 Calma 12 Sudoeste 1 -- -- 98
2019-02-02 01:00:00 3.4 2 Nordeste 6 Nordeste 0.6 -- -- 97
2019-02-02 00:00:00 3.4 0 Calma 10 Norte 0.6 -- -- 95
2019-02-01 23:00:00 4.1 5 Noroeste 23 Oeste 4 -- -- 91
2019-02-01 22:00:00 6 14 Oeste 33 Oeste 0.2 -- -- 81
2019-02-01 21:00:00 4.5 3 Norte 10 Sudoeste 0 -- -- 94
2019-02-01 20:00:00 4.3 3 Oeste 10 Oeste 0 -- -- 91
2019-02-01 19:00:00 5.7 2 Sudoeste 10 Sudoeste 0 -- -- 88
2019-02-01 18:00:00 6.1 0 Calma 14 Noroeste 0 -- -- 86
2019-02-01 17:00:00 6.5 12 Noroeste 35 Oeste 0.4 -- -- 83
2019-02-01 16:00:00 8.5 7 Sudeste 34 Sudoeste 1 -- -- 78
2019-02-01 15:00:00 8.6 6 Sur 39 Sur 0.2 -- -- 77
2019-02-01 14:00:00 10.9 17 Sudoeste 50 Oeste 0 -- -- 61
2019-02-01 13:00:00 10.9 14 Sur 65 Sudoeste 0 -- -- 60
2019-02-01 12:00:00 11.3 9 Sur 54 Sudoeste 0 -- -- 57
2019-02-01 11:00:00 10.1 14 Sur 59 Sudoeste 0.2 -- -- 68
2019-02-01 10:00:00 10.3 16 Sur 55 Sudoeste 0 -- -- 61
2019-02-01 09:00:00 9 15 Sur 51 Sudoeste 0 -- -- 60
2019-02-01 08:00:00 9.5 12 Sudoeste 58 Sudoeste 0 -- -- 64
2019-02-01 07:00:00 9.6 19 Sur 49 Sur 0 -- -- 68
2019-02-01 06:00:00 9 12 Sur 36 Sudoeste 0 -- -- 71
2019-02-01 05:00:00 7.3 5 Sur 14 Sudoeste 0 -- -- 98
2019-02-01 04:00:00 8 4 Este 9 Nordeste 0 -- -- 99
2019-02-01 03:00:00 8.5 5 Sur 13 Sudeste 0 -- -- 100
2019-02-01 02:00:00 8.7 0 Calma 8 Sudoeste 0 -- -- 100
2019-02-01 01:00:00 8.9 0 Calma 6 Este 0 -- -- 99
2019-02-01 00:00:00 8.9 2 Este 13 Oeste 0 -- -- 99
2019-01-31 23:00:00 9 3 Noroeste 18 Sudeste 0.8 -- -- 98
2019-01-31 22:00:00 9.2 4 Sudeste 10 Nordeste 3 -- -- 99
2019-01-31 21:00:00 9.7 2 Nordeste 9 Norte 7.8 -- -- 98
2019-01-31 20:00:00 10.1 0 Calma 11 Norte 11.2 -- -- 97
2019-01-31 19:00:00 11.3 6 Noroeste 32 Noroeste 2.6 -- -- 93
2019-01-31 18:00:00 15.7 15 Sudoeste 41 Sur 0 -- -- 70
2019-01-31 17:00:00 15.6 8 Sur 29 Sur 0.2 -- -- 73
2019-01-31 16:00:00 15.3 12 Sur 35 Sudoeste 0.2 -- -- 77
2019-01-31 15:00:00 16.7 9 Sur 40 Sudoeste 0 -- -- 66
2019-01-31 14:00:00 16.2 7 Sur 32 Sur 0 -- -- 68
2019-01-31 13:00:00 15.1 5 Este 26 Sur 0 -- -- 70
2019-01-31 12:00:00 14.3 5 Este 21 Sur 0 -- -- 74
2019-01-31 11:00:00 12.4 6 Sudeste 22 Sudeste 0 -- -- 85
2019-01-31 10:00:00 11.8 7 Sudeste 21 Sudeste 0.4 -- -- 86
2019-01-31 09:00:00 10 9 Sudeste 19 Este 0.2 -- -- 95
2019-01-31 08:00:00 9 2 Norte 11 Sur 0 -- -- 97
2019-01-31 07:00:00 8.8 3 Sur 14 Este 0.6 -- -- 98
2019-01-31 06:00:00 8.4 3 Oeste 9 Nordeste 1 -- -- 97
2019-01-31 05:00:00 8.5 4 Noroeste 19 Sudeste 0.6 -- -- 96
2019-01-31 04:00:00 7.9 4 Sur 23 Este 1 -- -- 96
2019-01-31 03:00:00 7.7 4 Sur 13 Sur 0.6 -- -- 94
2019-01-31 02:00:00 7.2 9 Este 21 Sudeste 1.4 -- -- 94
2019-01-31 01:00:00 6.9 10 Sudeste 21 Este 0.8 -- -- 93
2019-01-31 00:00:00 7.2 9 Sudeste 21 Sudeste 0.8 -- -- 88
2019-01-30 23:00:00 7 4 Noroeste 21 Sudeste 0.6 -- -- 87
2019-01-30 22:00:00 7.8 7 Sur 23 Sur 0.4 -- -- 82
2019-01-30 21:00:00 8.7 9 Sur 22 Este 0 -- -- 74
2019-01-30 20:00:00 8.8 8 Sudoeste 36 Sudeste 0 -- -- 74
2019-01-30 19:00:00 10 3 Este 20 Sudeste 0 -- -- 62
2019-01-30 18:00:00 10.3 3 Sur 24 Sur 0 -- -- 54
2019-01-30 17:00:00 10.6 4 Sudoeste 20 Sudoeste 0 -- -- 54
2019-01-30 16:00:00 10.7 6 Sudoeste 24 Sudoeste 0 -- -- 53
2019-01-30 15:00:00 10.7 6 Sudoeste 21 Sur 0 -- -- 52
2019-01-30 14:00:00 10.5 9 Sudoeste 24 Sudoeste 0 -- -- 57
2019-01-30 13:00:00 10 6 Sur 14 Sudoeste 0 -- -- 61
2019-01-30 12:00:00 8.4 3 Este 9 Sur 0 -- -- 83
2019-01-30 11:00:00 5.3 2 Noroeste 10 Oeste 0 -- -- 98
2019-01-30 10:00:00 4.7 3 Oeste 6 Sudoeste 0 -- -- 99
2019-01-30 09:00:00 4.4 0 Calma 9 Sudoeste 0 -- -- 99
2019-01-30 08:00:00 4.3 3 Nordeste 8 Oeste 0.2 -- -- 98
2019-01-30 07:00:00 4.4 3 Oeste 9 Sudeste 0.2 -- -- 98
2019-01-30 06:00:00 4.4 2 Sur 8 Sur 0.6 -- -- 97
2019-01-30 05:00:00 4.4 3 Sur 8 Sur 0.2 -- -- 97
2019-01-30 04:00:00 4.5 0 Calma 6 Este 0.8 -- -- 97
2019-01-30 03:00:00 4.5 4 Nordeste 14 Sudeste 0.2 -- -- 95
2019-01-30 02:00:00 5 5 Noroeste 18 Norte 0.8 -- -- 90
2019-01-30 01:00:00 5.6 7 Noroeste 23 Oeste 0.4 -- -- 86
2019-01-30 00:00:00 5.8 8 Noroeste 36 Noroeste 0.4 -- -- 85
2019-01-29 23:00:00 5.9 10 Noroeste 44 Noroeste 0.4 -- -- 85
2019-01-29 22:00:00 6.4 21 Noroeste 50 Noroeste 0.4 -- -- 84
2019-01-29 21:00:00 7 17 Noroeste 34 Oeste 0.2 -- -- 82
2019-01-29 20:00:00 7 16 Noroeste 37 Oeste 0.8 -- -- 85
2019-01-29 19:00:00 7.9 6 Sudoeste 36 Noroeste 0.4 -- -- 78
2019-01-29 18:00:00 8.5 8 Oeste 41 Noroeste 0.4 -- -- 74
2019-01-29 17:00:00 9.5 11 Noroeste 39 Oeste 0.2 -- -- 76
2019-01-29 16:00:00 9.7 11 Oeste 32 Sudoeste 1.4 -- -- 82
2019-01-29 15:00:00 10.1 15 Oeste 37 Oeste 1 -- -- 83
2019-01-29 14:00:00 9.9 7 Este 19 Nordeste 0.4 -- -- 80
2019-01-29 13:00:00 9.5 9 Sudeste 22 Sur 0 -- -- 75
2019-01-29 12:00:00 9 4 Nordeste 28 Sudeste 0 -- -- 80
2019-01-29 11:00:00 7.5 9 Sudeste 22 Sudeste 0 -- -- 89
2019-01-29 10:00:00 5.7 3 Norte 7 Oeste 0 -- -- 100
2019-01-29 09:00:00 5.1 0 Calma 4 Este 0.2 -- -- 100
2019-01-29 08:00:00 5 0 Calma 9 Sudeste 0 -- -- 100
2019-01-29 07:00:00 4.9 2 Sur 6 Sudeste 0 -- -- 100
2019-01-29 06:00:00 5 0 Calma 12 Este 0 -- -- 100
2019-01-29 05:00:00 4.5 3 Sur 8 Este 0 -- -- 100
2019-01-29 04:00:00 5.3 2 Oeste 8 Sudoeste 0 -- -- 99
2019-01-29 03:00:00 6.2 0 Calma 5 Sudoeste 0.8 -- -- 99
2019-01-29 02:00:00 6.6 4 Sudoeste 6 Este 1.2 -- -- 97
2019-01-29 01:00:00 6.8 0 Calma 14 Sudoeste 0.4 -- -- 95
2019-01-29 00:00:00 6.9 2 Sudoeste 5 Sudoeste 0.2 -- -- 96
2019-01-28 23:00:00 7.3 4 Este 19 Noroeste 0 -- -- 93
2019-01-28 22:00:00 7.7 10 Noroeste 26 Noroeste 0.2 -- -- 89
2019-01-28 21:00:00 7 13 Noroeste 23 Noroeste 3.2 -- -- 96
2019-01-28 20:00:00 7.1 5 Norte 14 Norte 3.6 -- -- 96
2019-01-28 19:00:00 7.8 6 Norte 23 Noroeste 0.4 -- -- 89
2019-01-28 18:00:00 8.4 11 Noroeste 38 Oeste 0.4 -- -- 80
2019-01-28 17:00:00 9.1 14 Noroeste 32 Oeste 0 -- -- 76
2019-01-28 16:00:00 8.7 6 Oeste 46 Noroeste 0.4 -- -- 83
2019-01-28 15:00:00 9.3 19 Noroeste 49 Noroeste 0.2 -- -- 80
2019-01-28 14:00:00 9.8 18 Noroeste 49 Norte 0 -- -- 74
2019-01-28 13:00:00 8.7 14 Noroeste 43 Noroeste 0.4 -- -- 85
2019-01-28 12:00:00 8.4 16 Noroeste 38 Noroeste 1.8 -- -- 89
2019-01-28 11:00:00 8.4 19 Noroeste 41 Noroeste 1.8 -- -- 91
2019-01-28 10:00:00 8.5 18 Noroeste 32 Noroeste 2.2 -- -- 92
2019-01-28 09:00:00 8.7 18 Noroeste 34 Noroeste 1.8 -- -- 90
2019-01-28 08:00:00 8.1 8 Norte 26 Oeste 1 -- -- 93
2019-01-28 07:00:00 8.3 7 Noroeste 28 Oeste 0.6 -- -- 89
2019-01-28 06:00:00 6.1 3 Nordeste 14 Este 0.8 -- -- 100
2019-01-28 05:00:00 5.6 2 Sudoeste 10 Este 1 -- -- 99
2019-01-28 04:00:00 5.4 2 Oeste 10 Sudeste 0.2 -- -- 98
2019-01-28 03:00:00 5.4 4 Sur 9 Sur 0 -- -- 97
2019-01-28 02:00:00 5.4 2 Sudeste 5 Sur 0.2 -- -- 97
2019-01-28 01:00:00 5.6 0 Calma 9 Oeste 0.4 -- -- 95
2019-01-28 00:00:00 6.1 5 Noroeste 24 Noroeste 0.6 -- -- 90
2019-01-27 23:00:00 6.1 5 Norte 13 Noroeste 0.2 -- -- 94
2019-01-27 22:00:00 6.2 8 Noroeste 22 Noroeste 0.8 -- -- 91
2019-01-27 21:00:00 6.2 5 Norte 33 Noroeste 1.2 -- -- 91
2019-01-27 20:00:00 6.6 6 Norte 32 Noroeste 0.2 -- -- 87
2019-01-27 19:00:00 7.7 12 Noroeste 31 Noroeste 0.2 -- -- 73
2019-01-27 18:00:00 7.8 15 Noroeste 41 Noroeste 0.2 -- -- 77
2019-01-27 17:00:00 8.6 14 Noroeste 36 Noroeste 0.2 -- -- 65
2019-01-27 16:00:00 7.8 6 Norte 38 Noroeste 0 -- -- 76
2019-01-27 15:00:00 9.4 11 Noroeste 35 Noroeste 0 -- -- 65
2019-01-27 14:00:00 9 18 Noroeste 41 Oeste 0 -- -- 71
2019-01-27 13:00:00 7.5 21 Noroeste 54 Noroeste 0.4 -- -- 84
2019-01-27 12:00:00 7.8 15 Oeste 41 Noroeste 0.8 -- -- 79
2019-01-27 11:00:00 6.6 9 Norte 24 Oeste 1.6 -- -- 91
2019-01-27 10:00:00 7 3 Este 40 Noroeste 0.4 -- -- 87
2019-01-27 09:00:00 8.3 6 Norte 38 Oeste 0 -- -- 71
2019-01-27 08:00:00 7.8 11 Oeste 26 Oeste 0 -- -- 71
2019-01-27 07:00:00 7.2 14 Noroeste 37 Noroeste 0 -- -- 92
2019-01-27 06:00:00 4 4 Sudoeste 10 Sudoeste 0 -- -- 100
2019-01-27 05:00:00 3.8 2 Sudoeste 5 Oeste 0.2 -- -- 100
2019-01-27 04:00:00 3.3 0 Calma 4 Sudoeste 0 -- -- 100
2019-01-27 03:00:00 3.3 3 Sudeste 5 Sudeste 0 -- -- 100
2019-01-27 02:00:00 3 0 Calma 3 Sur 0 -- -- 100
2019-01-27 01:00:00 3 0 Calma 4 Oeste 0 -- -- 100
2019-01-27 00:00:00 3.1 0 Calma 6 Sudoeste 0 -- -- 98
2019-01-26 23:00:00 3.6 0 Calma 3 Oeste 0 -- -- 97
2019-01-26 22:00:00 4.5 0 Calma 7 Sudoeste 0 -- -- 96
2019-01-26 21:00:00 5.4 0 Calma 5 Sudoeste 0 -- -- 94
2019-01-26 20:00:00 7.8 2 Sudoeste 14 Noroeste 0 -- -- 87
2019-01-26 19:00:00 9.7 3 Noroeste 13 Noroeste 0 -- -- 83
2019-01-26 18:00:00 11 5 Sudoeste 12 Sudoeste 0 -- -- 79
2019-01-26 17:00:00 12.8 4 Sudoeste 8 Sudoeste 0 -- -- 74
2019-01-26 16:00:00 13.3 3 Norte 12 Noroeste 0 -- -- 62
2019-01-26 15:00:00 13.1 4 Noroeste 8 Oeste 0 -- -- 62
2019-01-26 14:00:00 13 4 Nordeste 9 Sudeste 0 -- -- 62
2019-01-26 13:00:00 13 4 Este 12 Sur 0 -- -- 63
2019-01-26 12:00:00 12.7 6 Sudeste 13 Este 0 -- -- 62
2019-01-26 11:00:00 10.4 2 Sudeste 7 Nordeste 0 -- -- 76
2019-01-26 10:00:00 7.7 0 Calma 4 Sudoeste 0 -- -- 100
2019-01-26 09:00:00 6.9 0 Calma 4 Sudoeste 0 -- -- 100
2019-01-26 08:00:00 7.1 0 Calma 5 Sudoeste 0 -- -- 100
2019-01-26 07:00:00 7.3 0 Calma 3 Noroeste 0 -- -- 100
2019-01-26 06:00:00 7.5 0 Calma 2 Sur 0 -- -- 100
2019-01-26 05:00:00 7.5 0 Calma 4 Sudoeste 0 -- -- 100
2019-01-26 04:00:00 7.6 0 Calma 5 Nordeste 0 -- -- 99
2019-01-26 03:00:00 7.8 0 Calma 4 Sudoeste 0 -- -- 98
2019-01-26 02:00:00 8 0 Calma 5 Oeste 0 -- -- 98
2019-01-26 01:00:00 8.1 2 Nordeste 6 Sudoeste 0 -- -- 97
2019-01-26 00:00:00 8.4 3 Sudoeste 4 Noroeste 0 -- -- 96
2019-01-25 23:00:00 8.6 0 Calma 5 Oeste 0 -- -- 94
2019-01-25 22:00:00 8.8 3 Norte 13 Noroeste 0 -- -- 91
2019-01-25 21:00:00 9 8 Noroeste 12 Noroeste 0 -- -- 89
2019-01-25 20:00:00 9.2 5 Noroeste 12 Noroeste 0 -- -- 87
2019-01-25 19:00:00 9.3 2 Norte 16 Noroeste 0 -- -- 87
2019-01-25 18:00:00 9.7 8 Noroeste 24 Noroeste 0 -- -- 85
2019-01-25 17:00:00 9.8 7 Noroeste 19 Noroeste 0.2 -- -- 91
2019-01-25 16:00:00 10 12 Noroeste 25 Noroeste 0 -- -- 88
2019-01-25 15:00:00 9.9 7 Noroeste 28 Noroeste 0 -- -- 93
2019-01-25 14:00:00 10.8 8 Noroeste 25 Noroeste 0 -- -- 87
2019-01-25 13:00:00 10.4 13 Noroeste 29 Noroeste 0 -- -- 89
2019-01-25 12:00:00 9.8 11 Noroeste 26 Noroeste 0.2 -- -- 93
2019-01-25 11:00:00 9.2 10 Noroeste 30 Noroeste 0 -- -- 95
2019-01-25 10:00:00 9 11 Noroeste 21 Noroeste 0.4 -- -- 97
2019-01-25 09:00:00 9.1 9 Noroeste 19 Noroeste 0.6 -- -- 98
2019-01-25 08:00:00 9 9 Noroeste 19 Noroeste 0.6 -- -- 99
2019-01-25 07:00:00 9 8 Noroeste 27 Norte 0 -- -- 98
2019-01-25 06:00:00 9 8 Noroeste 18 Noroeste 1 -- -- 99
2019-01-25 05:00:00 9.3 8 Noroeste 35 Noroeste 0.2 -- -- 97
2019-01-25 04:00:00 9.5 10 Noroeste 30 Norte 0 -- -- 95
2019-01-25 03:00:00 9.2 5 Noroeste 25 Norte 0.4 -- -- 100
2019-01-25 02:00:00 9.2 10 Noroeste 19 Noroeste 2 -- -- 100
2019-01-25 01:00:00 8.6 4 Noroeste 12 Noroeste 1.6 -- -- 100
2019-01-25 00:00:00 8.4 4 Noroeste 10 Noroeste 0.8 -- -- 100
2019-01-24 23:00:00 8 5 Noroeste 13 Noroeste 0.2 -- -- 100
2019-01-24 22:00:00 7.3 8 Oeste 15 Oeste 0.4 -- -- 100
2019-01-24 21:00:00 6.9 2 Noroeste 5 Este 1.4 -- -- 100
2019-01-24 20:00:00 6.9 0 Calma 3 Oeste 1.8 -- -- 100
2019-01-24 19:00:00 6.9 0 Calma 6 Oeste 1.4 -- -- 100
2019-01-24 18:00:00 7 0 Calma 7 Noroeste 1.2 -- -- 100
2019-01-24 17:00:00 7.3 4 Noroeste 7 Noroeste 0 -- -- 100
2019-01-24 16:00:00 7.5 3 Norte 6 Norte 1.4 -- -- 100
2019-01-24 15:00:00 7.3 2 Nordeste 4 Nordeste 0.8 -- -- 100
2019-01-24 14:00:00 6.8 0 Calma 3 Este 1.2 -- -- 100
2019-01-24 13:00:00 6.9 0 Calma 5 Sudoeste 1 -- -- 100
2019-01-24 12:00:00 6.7 2 Sudoeste 5 Noroeste 2.6 -- -- 100
2019-01-24 11:00:00 6.6 3 Norte 15 Noroeste 3.4 -- -- 100
2019-01-24 10:00:00 6.6 5 Noroeste 12 Noroeste 2.6 -- -- 100
2019-01-24 09:00:00 6.6 5 Oeste 9 Oeste 2.8 -- -- 100
2019-01-24 08:00:00 6.6 2 Oeste 7 Noroeste 2.4 -- -- 100
2019-01-24 07:00:00 6.7 4 Noroeste 9 Noroeste 2.4 -- -- 100
2019-01-24 06:00:00 6.9 6 Noroeste 19 Noroeste 2.6 -- -- 100
2019-01-24 05:00:00 7.1 7 Noroeste 17 Noroeste 3.4 -- -- 99
2019-01-24 04:00:00 7.1 7 Noroeste 18 Oeste 4.2 -- -- 99
2019-01-24 03:00:00 7.1 9 Noroeste 24 Oeste 3.8 -- -- 98
2019-01-24 02:00:00 7 8 Noroeste 24 Noroeste 2.8 -- -- 98
2019-01-24 01:00:00 7.1 13 Noroeste 28 Noroeste 3.6 -- -- 97
2019-01-24 00:00:00 7.2 8 Noroeste 33 Noroeste 2 -- -- 95